createdAt,value
2018-08-02T00:01:00.854Z,99690.08
2018-08-02T00:03:29.534Z,99693.00
2018-08-02T00:05:58.220Z,99695.44
2018-08-02T00:08:26.888Z,99700.05
2018-08-02T00:10:55.591Z,99703.01
2018-08-02T00:13:24.316Z,99701.57
2018-08-02T00:15:53.071Z,99699.53
2018-08-02T00:18:21.802Z,99703.59
2018-08-02T00:20:50.530Z,99703.01
2018-08-02T00:23:19.205Z,99704.11
2018-08-02T00:25:47.893Z,99707.39
2018-08-02T00:28:16.692Z,99708.75
2018-08-02T00:30:45.362Z,99713.66
2018-08-02T00:33:14.014Z,99717.05
2018-08-02T00:35:42.841Z,99732.59
2018-08-02T00:38:11.560Z,99729.60
2018-08-02T00:40:40.279Z,99730.30
2018-08-02T00:43:09.111Z,99731.50
2018-08-02T00:45:37.866Z,99733.78
2018-08-02T00:48:06.687Z,99730.91
2018-08-02T00:50:35.405Z,99734.25
2018-08-02T00:53:04.099Z,99733.20
2018-08-02T00:55:32.846Z,99730.45
2018-08-02T00:58:01.605Z,99731.55
2018-08-02T01:00:30.387Z,99729.08
2018-08-02T01:02:59.081Z,99730.96
2018-08-02T01:05:27.764Z,99731.77
2018-08-02T01:07:56.451Z,99732.52
2018-08-02T01:10:25.204Z,99735.53
2018-08-02T01:12:53.868Z,99734.07
2018-08-02T01:15:22.557Z,99735.11
2018-08-02T01:17:51.347Z,99737.08
2018-08-02T01:20:20.065Z,99727.74
2018-08-02T01:22:48.857Z,99734.81
2018-08-02T01:25:17.611Z,99734.07
2018-08-02T01:27:46.454Z,99728.16
2018-08-02T01:30:15.242Z,99726.61
2018-08-02T01:32:44.032Z,99725.98
2018-08-02T01:35:12.792Z,99721.48
2018-08-02T01:37:41.454Z,99724.68
2018-08-02T01:40:10.189Z,99725.06
2018-08-02T01:42:38.850Z,99727.34
2018-08-02T01:45:07.583Z,99719.78
2018-08-02T01:47:36.273Z,99723.77
2018-08-02T01:50:04.983Z,99719.14
2018-08-02T01:52:33.651Z,99714.81
2018-08-02T01:55:07.350Z,99721.42
2018-08-02T01:57:36.013Z,99715.67
2018-08-02T02:00:05.027Z,99715.67
2018-08-02T02:05:01.305Z,99704.77
2018-08-02T02:07:29.992Z,99709.53
2018-08-02T02:09:58.657Z,99707.83
2018-08-02T02:12:27.335Z,99706.92
2018-08-02T02:14:55.978Z,99709.92
2018-08-02T02:17:24.672Z,99709.84
2018-08-02T02:19:53.364Z,99709.77
2018-08-02T02:22:22.082Z,99714.34
2018-08-02T02:24:50.783Z,99707.47
2018-08-02T02:27:19.469Z,99710.92
2018-08-02T02:29:48.138Z,99703.94
2018-08-02T02:32:16.795Z,99697.30
2018-08-02T02:34:45.500Z,99702.25
2018-08-02T02:37:14.150Z,99703.09
2018-08-02T02:39:42.793Z,99701.25
2018-08-02T02:42:11.476Z,99704.80
2018-08-02T02:44:40.167Z,99698.09
2018-08-02T02:47:09.042Z,99701.46
2018-08-02T02:49:37.766Z,99704.31
2018-08-02T02:52:06.542Z,99702.83
2018-08-02T02:54:35.338Z,99709.27
2018-08-02T02:57:04.075Z,99707.52
2018-08-02T02:59:32.804Z,99709.20
2018-08-02T03:02:01.503Z,99707.23
2018-08-02T03:04:30.271Z,99708.73
2018-08-02T03:06:59.063Z,99707.06
2018-08-02T03:09:27.899Z,99708.18
2018-08-02T03:11:56.737Z,99703.89
2018-08-02T03:14:25.502Z,99706.49
2018-08-02T03:16:54.253Z,99706.13
2018-08-02T03:19:23.045Z,99709.84
2018-08-02T03:21:51.873Z,99705.10
2018-08-02T03:24:20.663Z,99708.55
2018-08-02T03:26:49.427Z,99711.34
2018-08-02T03:29:18.170Z,99708.16
2018-08-02T03:31:47.010Z,99706.20
2018-08-02T03:34:15.775Z,99708.36
2018-08-02T03:36:44.483Z,99710.41
2018-08-02T03:39:13.230Z,99716.25
2018-08-02T03:41:42.012Z,99718.02
2018-08-02T03:44:10.833Z,99723.69
2018-08-02T03:46:39.545Z,99720.16
2018-08-02T03:49:08.312Z,99723.61
2018-08-02T03:51:37.123Z,99721.58
2018-08-02T03:54:05.912Z,99712.98
2018-08-02T03:56:34.604Z,99713.83
2018-08-02T03:59:03.334Z,99722.39
2018-08-02T04:01:32.092Z,99718.94
2018-08-02T04:04:00.869Z,99725.66
2018-08-02T04:06:29.649Z,99719.33
2018-08-02T04:08:58.423Z,99721.17
2018-08-02T04:11:27.248Z,99731.61
2018-08-02T04:13:55.986Z,99735.98
2018-08-02T04:16:24.761Z,99737.41
2018-08-02T04:18:58.824Z,99741.32
2018-08-02T04:21:27.609Z,99736.72
2018-08-02T04:23:56.395Z,99739.52
2018-08-02T04:26:25.126Z,99732.30
2018-08-02T04:28:53.886Z,99741.78
2018-08-02T04:31:22.679Z,99747.06
2018-08-02T04:33:51.420Z,99752.69
2018-08-02T04:36:20.217Z,99747.25
2018-08-02T04:38:49.484Z,99748.82
2018-08-02T04:41:30.428Z,99754.69
2018-08-02T04:43:59.289Z,99758.73
2018-08-02T04:46:27.976Z,99761.21
2018-08-02T04:48:56.748Z,99766.81
2018-08-02T04:51:25.490Z,99767.26
2018-08-02T04:53:54.223Z,99772.66
2018-08-02T04:56:22.924Z,99768.17
2018-08-02T04:58:52.223Z,99769.09
2018-08-02T05:01:21.105Z,99767.52
2018-08-02T05:03:49.879Z,99769.54
2018-08-02T05:06:18.593Z,99770.90
2018-08-02T05:08:47.359Z,99773.01
2018-08-02T05:11:16.159Z,99781.53
2018-08-02T05:13:45.166Z,99783.14
2018-08-02T05:16:13.918Z,99788.77
2018-08-02T05:18:42.719Z,99791.75
2018-08-02T05:21:11.463Z,99799.48
2018-08-02T05:23:40.362Z,99804.05
2018-08-02T05:26:09.133Z,99808.30
2018-08-02T05:28:37.916Z,99806.86
2018-08-02T05:31:06.774Z,99812.72
2018-08-02T05:33:36.048Z,99810.84
2018-08-02T05:36:05.108Z,99816.95
2018-08-02T05:38:34.128Z,99815.14
2018-08-02T05:41:02.951Z,99822.73
2018-08-02T05:43:31.949Z,99812.15
2018-08-02T05:46:00.656Z,99823.08
2018-08-02T05:48:29.650Z,99828.59
2018-08-02T05:50:58.422Z,99828.97
2018-08-02T05:53:27.142Z,99834.46
2018-08-02T05:55:55.938Z,99832.67
2018-08-02T05:58:24.720Z,99830.05
2018-08-02T06:00:53.596Z,99836.98
2018-08-02T06:03:22.409Z,99832.67
2018-08-02T06:05:51.327Z,99831.59
2018-08-02T06:08:20.625Z,99838.91
2018-08-02T06:10:49.609Z,99837.69
2018-08-02T06:13:18.339Z,99845.70
2018-08-02T06:15:47.064Z,99841.78
2018-08-02T06:18:17.139Z,99839.63
2018-08-02T06:20:45.971Z,99841.07
2018-08-02T06:23:14.878Z,99840.20
2018-08-02T06:25:43.722Z,99842.82
2018-08-02T06:28:12.820Z,99841.39
2018-08-02T06:30:41.779Z,99843.27
2018-08-02T06:33:10.560Z,99841.36
2018-08-02T06:35:39.454Z,99843.48
2018-08-02T06:38:08.379Z,99850.91
2018-08-02T06:40:37.567Z,99853.74
2018-08-02T06:43:09.956Z,99852.50
2018-08-02T06:45:43.821Z,99851.20
2018-08-02T06:48:19.874Z,99850.56
2018-08-02T06:50:48.916Z,99850.91
2018-08-02T06:53:18.136Z,99854.98
2018-08-02T06:55:47.500Z,99856.44
2018-08-02T06:58:16.401Z,99849.95
2018-08-02T07:00:46.274Z,99851.72
2018-08-02T07:03:15.809Z,99848.87
2018-08-02T07:05:44.706Z,99848.63
2018-08-02T07:08:15.088Z,99855.20
2018-08-02T07:10:43.922Z,99847.31
2018-08-02T07:13:12.864Z,99845.98
2018-08-02T07:15:43.261Z,99847.64
2018-08-02T07:18:21.941Z,99850.45
2018-08-02T07:20:55.804Z,99849.59
2018-08-02T07:23:24.603Z,99845.25
2018-08-02T07:25:53.461Z,99843.80
2018-08-02T07:28:22.460Z,99842.48
2018-08-02T07:30:51.528Z,99848.47
2018-08-02T07:33:20.474Z,99848.55
2018-08-02T07:35:49.271Z,99839.78
2018-08-02T07:38:18.111Z,99843.99
2018-08-02T07:40:46.975Z,99842.27
2018-08-02T07:43:15.773Z,99845.58
2018-08-02T07:45:44.656Z,99841.66
2018-08-02T07:48:13.479Z,99838.93
2018-08-02T07:50:42.313Z,99847.68
2018-08-02T07:53:11.089Z,99844.23
2018-08-02T07:55:39.914Z,99838.77
2018-08-02T07:58:08.885Z,99844.03
2018-08-02T08:00:37.631Z,99839.89
2018-08-02T08:03:06.559Z,99844.30
2018-08-02T08:05:35.313Z,99852.78
2018-08-02T08:08:04.236Z,99838.89
2018-08-02T08:10:33.183Z,99840.20
2018-08-02T08:13:02.299Z,99847.05
2018-08-02T08:15:31.290Z,99839.13
2018-08-02T08:18:00.435Z,99843.11
2018-08-02T08:20:29.394Z,99846.09
2018-08-02T08:22:58.042Z,99848.75
2018-08-02T08:25:26.810Z,99845.25
2018-08-02T08:27:55.516Z,99851.70
2018-08-02T08:30:24.302Z,99845.55
2018-08-02T08:32:53.491Z,99847.36
2018-08-02T08:35:23.119Z,99843.94
2018-08-02T08:37:51.866Z,99849.50
2018-08-02T08:40:20.542Z,99851.64
2018-08-02T08:42:49.219Z,99854.82
2018-08-02T08:45:17.931Z,99853.72
2018-08-02T08:47:46.606Z,99851.77
2018-08-02T08:50:15.337Z,99861.73
2018-08-02T08:52:44.079Z,99857.59
2018-08-02T08:55:12.756Z,99868.02
2018-08-02T08:57:46.884Z,99867.22
2018-08-02T09:00:15.679Z,99861.76
2018-08-02T09:02:44.534Z,99856.58
2018-08-02T09:05:13.242Z,99863.19
2018-08-02T09:07:41.990Z,99859.84
2018-08-02T09:10:10.874Z,99858.52
2018-08-02T09:12:39.551Z,99860.38
2018-08-02T09:15:08.802Z,99857.48
2018-08-02T09:17:37.450Z,99854.19
2018-08-02T09:20:06.425Z,99851.66
2018-08-02T09:22:35.170Z,99853.82
2018-08-02T09:25:03.958Z,99849.66
2018-08-02T09:27:32.665Z,99848.70
2018-08-02T09:30:01.323Z,99852.14
2018-08-02T09:32:30.103Z,99856.75
2018-08-02T09:34:58.738Z,99852.08
2018-08-02T09:37:27.375Z,99848.70
2018-08-02T09:39:56.109Z,99849.36
2018-08-02T09:42:31.422Z,99855.97
2018-08-02T09:45:00.112Z,99849.89
2018-08-02T09:47:28.822Z,99851.81
2018-08-02T09:49:57.486Z,99846.40
2018-08-02T09:52:26.101Z,99853.38
2018-08-02T09:54:54.826Z,99854.91
2018-08-02T09:57:23.444Z,99847.73
2018-08-02T09:59:52.176Z,99846.23
2018-08-02T10:02:27.710Z,99842.73
2018-08-02T10:04:56.362Z,99843.84
2018-08-02T10:07:25.025Z,99841.23
2018-08-02T10:09:53.687Z,99850.56
2018-08-02T10:12:22.359Z,99847.66
2018-08-02T10:14:51.036Z,99842.38
2018-08-02T10:17:19.711Z,99831.37
2018-08-02T10:19:48.721Z,99835.77
2018-08-02T10:22:17.433Z,99835.27
2018-08-02T10:24:46.168Z,99825.93
2018-08-02T10:27:14.817Z,99821.64
2018-08-02T10:29:43.602Z,99808.63
2018-08-02T10:32:12.670Z,99816.59
2018-08-02T10:34:41.310Z,99811.13
2018-08-02T10:37:09.970Z,99810.05
2018-08-02T10:39:38.607Z,99807.73
2018-08-02T10:42:07.314Z,99799.95
2018-08-02T10:44:36.056Z,99798.23
2018-08-02T10:47:04.790Z,99796.25
2018-08-02T10:49:33.437Z,99791.44
2018-08-02T10:52:02.159Z,99787.41
2018-08-02T10:54:30.845Z,99780.78
2018-08-02T10:56:59.540Z,99775.78
2018-08-02T10:59:28.201Z,99779.05
2018-08-02T11:01:57.036Z,99773.88
2018-08-02T11:04:25.686Z,99771.57
2018-08-02T11:06:54.418Z,99761.70
2018-08-02T11:09:23.074Z,99765.70
2018-08-02T11:11:51.739Z,99757.17
2018-08-02T11:14:20.430Z,99759.39
2018-08-02T11:16:49.106Z,99756.16
2018-08-02T11:19:17.815Z,99755.12
2018-08-02T11:21:46.515Z,99747.39
2018-08-02T11:24:15.201Z,99742.80
2018-08-02T11:26:43.876Z,99735.38
2018-08-02T11:29:14.129Z,99733.73
2018-08-02T11:31:43.396Z,99729.06
2018-08-02T11:34:12.153Z,99723.80
2018-08-02T11:36:40.985Z,99723.69
2018-08-02T11:39:09.946Z,99716.33
2018-08-02T11:41:39.060Z,99713.63
2018-08-02T11:44:07.741Z,99717.23
2018-08-02T11:46:36.711Z,99726.69
2018-08-02T11:49:05.544Z,99714.11
2018-08-02T11:51:34.327Z,99716.78
2018-08-02T11:54:03.123Z,99717.39
2018-08-02T11:56:32.162Z,99717.23
2018-08-02T11:59:00.878Z,99715.73
2018-08-02T12:01:29.501Z,99720.08
2018-08-02T12:03:58.724Z,99713.17
2018-08-02T12:06:27.450Z,99704.42
2018-08-02T12:08:56.215Z,99701.21
2018-08-02T12:11:24.923Z,99701.77
2018-08-02T12:13:53.921Z,99704.32
2018-08-02T12:16:22.898Z,99704.82
2018-08-02T12:18:51.688Z,99707.62
2018-08-02T12:21:20.507Z,99703.13
2018-08-02T12:23:49.371Z,99701.84
2018-08-02T12:26:18.104Z,99702.59
2018-08-02T12:28:46.881Z,99701.48
2018-08-02T12:31:15.685Z,99699.50
2018-08-02T12:33:44.594Z,99697.98
2018-08-02T12:36:13.339Z,99693.25
2018-08-02T12:38:42.062Z,99689.67
2018-08-02T12:43:47.630Z,99695.17
2018-08-02T12:46:16.554Z,99686.99
2018-08-02T12:48:47.542Z,99674.63
2018-08-02T12:51:16.414Z,99679.97
2018-08-02T12:53:46.416Z,99671.42
2018-08-02T12:56:15.206Z,99666.24
2018-08-02T12:58:44.114Z,99669.84
2018-08-02T13:01:14.839Z,99666.09
2018-08-02T13:03:43.551Z,99682.70
2018-08-02T13:06:12.463Z,99703.21
2018-08-02T13:08:41.240Z,99723.27
2018-08-02T13:11:10.106Z,99793.30
2018-08-02T13:13:38.738Z,99789.05
2018-08-02T13:16:07.670Z,99766.73
2018-08-02T13:18:36.490Z,99727.78
2018-08-02T13:21:05.251Z,99723.25
2018-08-02T13:23:34.033Z,99710.09
2018-08-02T13:26:03.181Z,99704.00
2018-08-02T13:28:32.064Z,99696.58
2018-08-02T13:31:01.228Z,99695.82
2018-08-02T13:33:30.834Z,99681.83
2018-08-02T13:35:59.867Z,99682.27
2018-08-02T13:38:28.706Z,99685.98
2018-08-02T13:41:01.823Z,99710.20
2018-08-02T13:43:30.668Z,99727.13
2018-08-02T13:45:59.453Z,99740.27
2018-08-02T13:48:28.497Z,99744.05
2018-08-02T13:50:57.710Z,99702.36
2018-08-02T13:53:26.573Z,99682.80
2018-08-02T13:55:55.509Z,99667.38
2018-08-02T13:58:24.384Z,99668.46
2018-08-02T14:00:53.219Z,99665.29
2018-08-02T14:03:21.920Z,99678.97
2018-08-02T14:05:51.053Z,99689.55
2018-08-02T14:08:20.485Z,99693.21
2018-08-02T14:10:49.876Z,99693.70
2018-08-02T14:13:18.870Z,99708.08
2018-08-02T14:15:47.634Z,99720.77
2018-08-02T14:18:16.430Z,99744.19
2018-08-02T14:20:45.294Z,99745.69
2018-08-02T14:23:15.279Z,99737.88
2018-08-02T14:25:44.633Z,99736.22
2018-08-02T14:28:14.710Z,99724.74
2018-08-02T14:30:43.717Z,99716.84
2018-08-02T14:33:12.468Z,99703.56
2018-08-02T14:35:41.306Z,99696.52
2018-08-02T14:38:10.268Z,99694.86
2018-08-02T14:40:39.056Z,99698.78
2018-08-02T14:43:07.956Z,99692.30
2018-08-02T14:45:38.730Z,99681.59
2018-08-02T14:48:08.072Z,99669.81
2018-08-02T14:50:37.010Z,99666.52
2018-08-02T14:53:05.843Z,99682.98
2018-08-02T14:55:34.943Z,99689.52
2018-08-02T14:58:03.858Z,99701.66
2018-08-02T15:00:32.905Z,99703.66
2018-08-02T15:03:01.911Z,99698.83
2018-08-02T15:05:36.166Z,99701.09
2018-08-02T15:08:05.082Z,99709.12
2018-08-02T15:10:33.802Z,99716.97
2018-08-02T15:13:03.014Z,99711.13
2018-08-02T15:15:31.748Z,99729.74
2018-08-02T15:18:00.503Z,99724.71
2018-08-02T15:20:29.406Z,99720.28
2018-08-02T15:22:58.184Z,99722.05
2018-08-02T15:25:26.969Z,99715.02
2018-08-02T15:27:55.890Z,99714.66
2018-08-02T15:32:59.224Z,99719.19
2018-08-02T15:35:27.969Z,99720.14
2018-08-02T15:37:56.730Z,99725.72
2018-08-02T15:40:25.558Z,99717.67
2018-08-02T15:42:54.319Z,99716.97
2018-08-02T15:45:23.097Z,99705.63
2018-08-02T15:47:52.136Z,99706.87
2018-08-02T15:50:20.943Z,99707.16
2018-08-02T15:52:49.723Z,99700.98
2018-08-02T15:55:18.484Z,99699.90
2018-08-02T15:57:47.274Z,99704.97
2018-08-02T16:00:16.242Z,99697.83
2018-08-02T16:02:45.037Z,99700.88
2018-08-02T16:05:14.820Z,99703.52
2018-08-02T16:07:43.677Z,99711.20
2018-08-02T16:10:12.521Z,99709.03
2018-08-02T16:12:41.289Z,99705.73
2018-08-02T16:15:10.466Z,99703.03
2018-08-02T16:17:39.442Z,99701.60
2018-08-02T16:20:08.475Z,99696.79
2018-08-02T16:22:37.295Z,99704.34
2018-08-02T16:25:06.564Z,99704.91
2018-08-02T16:27:35.319Z,99714.79
2018-08-02T16:30:04.660Z,99708.30
2018-08-02T16:32:33.396Z,99701.27
2018-08-02T16:35:02.123Z,99701.99
2018-08-02T16:37:30.870Z,99694.59
2018-08-02T16:39:59.626Z,99697.20
2018-08-02T16:42:28.463Z,99695.81
2018-08-02T16:44:57.231Z,99699.07
2018-08-02T16:47:25.982Z,99701.28
2018-08-02T16:49:54.766Z,99708.09
2018-08-02T16:52:23.628Z,99707.86
2018-08-02T16:54:53.250Z,99698.38
2018-08-02T16:57:22.055Z,99698.47
2018-08-02T16:59:50.834Z,99694.64
2018-08-02T17:02:20.858Z,99696.17
2018-08-02T17:04:49.522Z,99692.96
2018-08-02T17:07:18.338Z,99696.13
2018-08-02T17:09:47.177Z,99696.50
2018-08-02T17:12:16.061Z,99699.06
2018-08-02T17:14:44.854Z,99701.17
2018-08-02T17:17:13.610Z,99697.95
2018-08-02T17:19:42.449Z,99700.30
2018-08-02T17:22:11.223Z,99700.77
2018-08-02T17:24:40.032Z,99707.48
2018-08-02T17:27:08.906Z,99703.34
2018-08-02T17:29:38.635Z,99702.45
2018-08-02T17:32:12.666Z,99705.55
2018-08-02T17:34:41.425Z,99704.53
2018-08-02T17:37:10.186Z,99708.30
2018-08-02T17:39:39.097Z,99707.88
2018-08-02T17:42:07.925Z,99707.95
2018-08-02T17:44:36.658Z,99709.35
2018-08-02T17:47:05.678Z,99708.52
2018-08-02T17:49:34.428Z,99713.06
2018-08-02T17:52:03.183Z,99712.97
2018-08-02T17:54:33.147Z,99713.63
2018-08-02T17:57:01.892Z,99714.88
2018-08-02T17:59:30.585Z,99715.55
2018-08-02T18:01:59.322Z,99725.78
2018-08-02T18:04:28.023Z,99722.39
2018-08-02T18:07:01.734Z,99726.09
2018-08-02T18:09:31.292Z,99731.36
2018-08-02T18:12:00.185Z,99733.72
2018-08-02T18:14:28.826Z,99735.02
2018-08-02T18:16:57.612Z,99742.05
2018-08-02T18:19:26.351Z,99746.79
2018-08-02T18:21:55.118Z,99756.31
2018-08-02T18:24:23.867Z,99771.92
2018-08-02T18:26:52.674Z,99778.28
2018-08-02T18:29:21.730Z,99780.97
2018-08-02T18:31:50.579Z,99789.45
2018-08-02T18:34:19.526Z,99789.48
2018-08-02T18:36:48.327Z,99795.09
2018-08-02T18:39:19.652Z,99798.53
2018-08-02T18:41:48.484Z,99801.16
2018-08-02T18:44:18.256Z,99800.22
2018-08-02T18:46:47.108Z,99800.09
2018-08-02T18:49:15.992Z,99798.16
2018-08-02T18:51:46.060Z,99799.47
2018-08-02T18:54:14.875Z,99807.06
2018-08-02T18:56:43.897Z,99804.66
2018-08-02T18:59:12.637Z,99801.41
2018-08-02T19:01:41.476Z,99800.80
2018-08-02T19:04:10.288Z,99806.39
2018-08-02T19:06:39.149Z,99816.00
2018-08-02T19:09:08.729Z,99816.11
2018-08-02T19:11:37.579Z,99822.14
2018-08-02T19:14:06.374Z,99817.25
2018-08-02T19:16:35.185Z,99813.55
2018-08-02T19:19:03.998Z,99818.55
2018-08-02T19:21:32.821Z,99822.84
2018-08-02T19:24:01.688Z,99823.13
2018-08-02T19:26:30.407Z,99821.10
2018-08-02T19:28:59.212Z,99816.92
2018-08-02T19:31:27.973Z,99815.09
2018-08-02T19:33:56.646Z,99809.73
2018-08-02T19:36:25.369Z,99809.81
2018-08-02T19:38:54.202Z,99809.70
2018-08-02T19:41:22.913Z,99803.86
2018-08-02T19:43:51.635Z,99809.91
2018-08-02T19:46:20.419Z,99807.89
2018-08-02T19:48:49.130Z,99807.77
2018-08-02T19:51:17.910Z,99808.14
2018-08-02T19:53:46.676Z,99810.60
2018-08-02T19:56:21.991Z,99813.56
2018-08-02T19:58:50.935Z,99808.89
2018-08-02T20:01:19.901Z,99811.04
2018-08-02T20:03:48.756Z,99813.19
2018-08-02T20:06:17.498Z,99813.03
2018-08-02T20:08:46.266Z,99815.66
2018-08-02T20:11:15.041Z,99814.09
2018-08-02T20:13:43.776Z,99817.30
2018-08-02T20:16:13.873Z,99815.58
2018-08-02T20:18:45.670Z,99811.78
2018-08-02T20:21:15.252Z,99813.68
2018-08-02T20:23:44.112Z,99812.09
2018-08-02T20:26:12.986Z,99811.83
2018-08-02T20:28:42.059Z,99810.09
2018-08-02T20:31:10.979Z,99805.66
2018-08-02T20:33:39.869Z,99802.41
2018-08-02T20:36:08.849Z,99807.19
2018-08-02T20:38:37.539Z,99810.18
2018-08-02T20:41:12.972Z,99809.43
2018-08-02T20:43:41.738Z,99811.94
2018-08-02T20:46:10.463Z,99820.00
2018-08-02T20:48:39.139Z,99816.79
2018-08-02T20:51:08.153Z,99812.61
2018-08-02T20:53:37.219Z,99808.68
2018-08-02T20:56:05.954Z,99805.77
2018-08-02T20:58:34.747Z,99811.55
2018-08-02T21:01:03.673Z,99810.83
2018-08-02T21:03:32.411Z,99814.25
2018-08-02T21:06:01.315Z,99814.08
2018-08-02T21:08:30.111Z,99816.91
2018-08-02T21:10:58.843Z,99825.06
2018-08-02T21:13:27.948Z,99828.36
2018-08-02T21:15:56.783Z,99820.45
2018-08-02T21:18:25.618Z,99821.97
2018-08-02T21:20:54.435Z,99819.63
2018-08-02T21:23:23.327Z,99818.91
2018-08-02T21:25:52.316Z,99818.99
2018-08-02T21:28:21.911Z,99817.63
2018-08-02T21:30:50.837Z,99815.25
2018-08-02T21:33:19.553Z,99817.58
2018-08-02T21:35:48.523Z,99816.19
2018-08-02T21:38:17.348Z,99813.45
2018-08-02T21:40:46.071Z,99817.03
2018-08-02T21:43:14.775Z,99819.38
2018-08-02T21:45:44.435Z,99816.00
2018-08-02T21:48:13.207Z,99815.28
2018-08-02T21:50:41.957Z,99816.80
2018-08-02T21:53:10.682Z,99817.31
2018-08-02T21:55:39.351Z,99815.16
2018-08-02T21:58:08.396Z,99812.57
2018-08-02T22:00:38.573Z,99824.86
2018-08-02T22:03:07.721Z,99831.19
2018-08-02T22:05:39.284Z,99829.62
2018-08-02T22:08:09.510Z,99828.63
2018-08-02T22:10:38.330Z,99827.72
2018-08-02T22:13:12.111Z,99829.77
2018-08-02T22:15:46.012Z,99833.62
2018-08-02T22:18:14.822Z,99833.55
2018-08-02T22:20:43.546Z,99840.92
2018-08-02T22:23:12.311Z,99834.90
2018-08-02T22:25:41.094Z,99836.09
2018-08-02T22:28:09.818Z,99835.91
2018-08-02T22:30:38.535Z,99837.88
2018-08-02T22:33:07.292Z,99828.92
2018-08-02T22:35:35.950Z,99827.62
2018-08-02T22:38:04.619Z,99831.15
2018-08-02T22:40:33.324Z,99817.89
2018-08-02T22:43:02.009Z,99827.52
2018-08-02T22:45:30.671Z,99825.36
2018-08-02T22:47:59.329Z,99822.37
2018-08-02T22:50:28.063Z,99822.67
2018-08-02T22:52:56.816Z,99827.70
2018-08-02T22:55:25.518Z,99830.33
2018-08-02T22:57:54.250Z,99830.70
2018-08-02T23:00:23.010Z,99832.17
2018-08-02T23:02:51.734Z,99831.17
2018-08-02T23:05:20.499Z,99827.98
2018-08-02T23:07:49.217Z,99826.88
2018-08-02T23:10:17.878Z,99824.16
2018-08-02T23:12:46.522Z,99820.27
2018-08-02T23:15:15.238Z,99816.63
2018-08-02T23:17:44.028Z,99821.85
2018-08-02T23:20:12.838Z,99821.70
2018-08-02T23:22:48.114Z,99821.77
2018-08-02T23:25:17.205Z,99821.13
2018-08-02T23:27:45.951Z,99814.32
2018-08-02T23:30:14.828Z,99813.20
2018-08-02T23:32:43.526Z,99805.45
2018-08-02T23:35:12.342Z,99807.91
2018-08-02T23:37:41.177Z,99813.20
2018-08-02T23:40:09.997Z,99811.91
2018-08-02T23:42:38.793Z,99811.91
2018-08-02T23:45:07.432Z,99807.88
2018-08-02T23:47:36.149Z,99812.17
2018-08-02T23:50:05.531Z,99814.52
2018-08-02T23:52:34.315Z,99815.55
2018-08-02T23:55:03.001Z,99816.74
2018-08-02T23:57:31.793Z,99814.70
